Time;durP1;ratioP1;P1;durP2;ratioP2;P2;SDS_P1;SDS_P2;PMS_P1;PMS_P2;Temp;Humidity;BMP_temperature;BMP_pressure;BME280_temperature;BME280_humidity;BME280_pressure;Samples;Min_cycle;Max_cycle;Signal;HPM_P1;HPM_P2
2021/01/10 00:00:54;;;;;;;22.27;12.77;;;5.10;99.90;;;5.39;66.19;102432.56;5075447;28;20041;-73
2021/01/10 00:03:24;;;;;;;16.97;11.40;;;5.20;99.90;;;5.30;67.09;102413.84;5075659;28;20044;-75
2021/01/10 00:05:55;;;;;;;17.03;11.27;;;5.20;99.90;;;5.56;67.16;102428.00;5075568;28;20047;-75
2021/01/10 00:08:23;;;;;;;20.07;11.57;;;5.30;99.90;;;5.64;67.03;102430.13;5075423;28;20489;-77
2021/01/10 00:10:53;;;;;;;20.60;10.63;;;5.40;99.90;;;5.66;67.71;102423.19;5075612;28;20052;-78
2021/01/10 00:13:20;;;;;;;19.92;10.82;;;5.40;99.90;;;5.88;67.51;102425.00;5075765;28;20367;-76
2021/01/10 00:15:48;;;;;;;18.10;10.70;;;5.60;99.90;;;5.94;67.28;102414.72;5075240;28;20040;-73
2021/01/10 00:18:16;;;;;;;13.60;10.27;;;5.70;99.90;;;6.03;66.94;102410.72;5074151;28;20477;-76
2021/01/10 00:20:43;;;;;;;17.03;10.20;;;5.80;99.90;;;6.12;66.47;102413.69;5075227;28;20471;-76
2021/01/10 00:23:12;;;;;;;14.93;11.03;;;5.90;99.90;;;6.28;66.16;102408.19;5075157;28;20044;-74
2021/01/10 00:25:39;;;;;;;18.13;10.00;;;6.10;99.90;;;6.44;66.04;102411.38;5074997;28;20041;-72
2021/01/10 00:28:07;;;;;;;13.53;8.87;;;6.20;99.90;;;5.29;65.98;102202.19;5075172;28;20072;-77
2021/01/10 00:30:34;;;;;;;18.53;9.97;;;6.30;99.90;;;6.56;65.91;102420.63;5075139;28;20102;-73
2021/01/10 00:33:03;;;;;;;17.73;9.90;;;6.40;99.90;;;6.56;65.81;102420.63;5074649;28;20118;-75
2021/01/10 00:35:31;;;;;;;14.70;9.27;;;6.40;99.90;;;6.54;65.59;102419.69;5073715;28;20082;-75
2021/01/10 00:38:00;;;;;;;14.97;8.40;;;6.40;99.90;;;6.60;66.52;102426.88;5074535;28;20059;-74
2021/01/10 00:40:28;;;;;;;13.07;8.83;;;6.40;99.90;;;6.66;66.62;102421.84;5073142;28;20559;-75
2021/01/10 00:42:56;;;;;;;13.13;8.97;;;6.50;99.90;;;6.54;66.90;102411.78;5074721;28;20075;-75
2021/01/10 00:45:24;;;;;;;14.67;9.63;;;6.40;99.90;;;6.39;67.53;102401.59;5074793;28;20057;-74
2021/01/10 00:47:54;;;;;;;15.50;9.30;;;6.30;99.90;;;6.03;68.75;102389.72;5074288;28;20520;-76
2021/01/10 00:50:41;;;;;;;13.83;9.20;;;5.90;99.90;;;6.20;68.92;102387.72;5073370;28;20067;-75
2021/01/10 00:53:10;;;;;;;13.10;9.27;;;6.10;99.90;;;6.31;68.48;102408.28;5073533;28;20045;-74
2021/01/10 00:55:43;;;;;;;21.77;10.50;;;6.10;99.90;;;6.28;68.21;102405.56;5073237;28;20397;-76
2021/01/10 00:58:10;;;;;;;13.00;9.13;;;6.10;99.90;;;6.41;67.92;102409.53;5074115;28;20436;-75
2021/01/10 01:00:40;;;;;;;14.07;9.50;;;6.10;99.90;;;6.46;67.93;102409.72;5072782;28;20147;-75
2021/01/10 01:03:12;;;;;;;14.90;9.90;;;6.20;99.90;;;6.47;67.94;102412.38;5073065;28;20056;-76
2021/01/10 01:05:41;;;;;;;22.20;9.60;;;6.30;99.90;;;6.33;67.85;102384.69;5072944;28;20090;-76
2021/01/10 01:08:10;;;;;;;11.27;9.00;;;6.30;99.90;;;6.31;67.75;102376.75;5073896;28;20138;-76
2021/01/10 01:10:54;;;;;;;18.63;10.38;;;6.30;99.90;;;6.37;68.05;102395.38;5072930;28;20056;-76
2021/01/10 01:13:21;;;;;;;12.57;9.27;;;6.30;99.90;;;6.53;67.96;102414.34;5074211;28;20040;-76
2021/01/10 01:15:50;;;;;;;12.27;9.37;;;6.30;99.90;;;6.55;67.87;102410.03;5073837;28;20044;-76
2021/01/10 01:18:18;;;;;;;15.23;9.20;;;6.30;99.90;;;6.59;67.70;102409.31;5073996;28;20048;-75
2021/01/10 01:20:46;;;;;;;11.80;9.53;;;6.40;99.90;;;6.59;67.70;102409.31;5073691;28;20045;-76
2021/01/10 01:23:14;;;;;;;13.97;8.90;;;6.40;99.90;;;6.56;67.71;102414.47;5089195;28;20040;-75
2021/01/10 01:25:44;;;;;;;15.63;9.70;;;6.40;99.90;;;6.53;67.69;102412.63;5073823;28;20167;-75
2021/01/10 01:28:12;;;;;;;12.73;9.17;;;6.40;99.90;;;6.52;67.65;102413.47;5073731;28;20064;-75
2021/01/10 01:30:40;;;;;;;15.87;10.13;;;6.40;99.90;;;6.52;67.73;102416.09;5073473;28;20044;-76
2021/01/10 01:33:07;;;;;;;14.50;8.80;;;6.40;99.90;;;6.42;67.66;102416.59;5074034;28;20055;-75
2021/01/10 01:35:35;;;;;;;15.07;8.93;;;6.30;99.90;;;6.24;68.23;102408.91;5073376;28;20055;-76
2021/01/10 01:38:04;;;;;;;13.63;9.93;;;6.10;99.90;;;6.22;68.23;102410.59;5073781;28;20052;-76
2021/01/10 01:40:31;;;;;;;13.60;9.63;;;6.00;99.90;;;6.14;68.72;102411.13;5073609;28;20048;-76
2021/01/10 01:42:59;;;;;;;16.73;9.93;;;5.90;99.90;;;6.06;69.15;102399.41;5072208;28;20049;-76
2021/01/10 01:45:27;;;;;;;12.87;9.03;;;5.90;99.90;;;6.08;68.98;102410.88;5073165;28;20132;-76
2021/01/10 01:47:58;;;;;;;14.40;9.23;;;5.80;99.90;;;6.03;69.53;102405.47;5073093;28;20075;-77
2021/01/10 01:50:25;;;;;;;16.30;10.10;;;5.70;99.90;;;6.12;69.15;102404.91;5073015;28;20109;-75
2021/01/10 01:52:53;;;;;;;13.80;10.00;;;5.80;99.90;;;6.19;69.09;102417.47;5072965;28;20110;-76
2021/01/10 01:55:20;;;;;;;13.47;9.77;;;5.90;99.90;;;6.17;69.12;102403.38;5073025;28;20040;-76
2021/01/10 01:57:47;;;;;;;14.00;8.77;;;5.90;99.90;;;6.24;68.85;102401.03;5072956;28;20114;-76
2021/01/10 02:00:16;;;;;;;13.63;9.23;;;6.00;99.90;;;6.18;68.98;102411.31;5072883;28;20063;-76
2021/01/10 02:02:44;;;;;;;11.00;9.67;;;6.00;99.90;;;6.11;69.38;102408.38;5073045;28;20462;-76
2021/01/10 02:05:22;;;;;;;14.70;9.37;;;5.90;99.90;;;6.05;69.51;102401.19;5072819;28;20044;-75
2021/01/10 02:07:58;;;;;;;16.03;9.53;;;5.90;99.90;;;6.02;69.93;102403.66;5072891;28;20139;-76
2021/01/10 02:10:30;;;;;;;13.50;9.07;;;5.80;99.90;;;5.93;70.42;102382.31;5072768;28;20490;-76
2021/01/10 02:13:06;;;;;;;12.63;8.60;;;5.80;99.90;;;5.85;70.91;102386.38;5072986;28;20044;-75
2021/01/10 02:15:36;;;;;;;13.90;9.33;;;5.80;99.90;;;5.83;71.57;102380.16;5072688;28;20379;-75
2021/01/10 02:18:07;;;;;;;12.50;8.97;;;5.70;99.90;;;5.75;71.30;102351.81;5072820;28;20102;-75
2021/01/10 02:20:37;;;;;;;16.80;8.60;;;5.80;99.90;;;6.01;71.61;102388.75;5105386;28;20540;-75
2021/01/10 02:23:13;;;;;;;13.77;8.60;;;5.80;99.90;;;6.03;71.21;102381.84;5071490;28;20094;-75
2021/01/10 02:25:47;;;;;;;13.20;8.83;;;5.80;99.90;;;6.14;71.48;102393.63;5071521;28;20565;-74
2021/01/10 02:28:19;;;;;;;13.97;8.53;;;5.90;99.90;;;6.12;70.99;102394.41;5072213;28;20071;-76
2021/01/10 02:30:46;;;;;;;12.37;9.00;;;5.90;99.90;;;6.19;70.68;102380.69;5072725;28;20113;-75
2021/01/10 02:33:22;;;;;;;13.90;9.50;;;6.00;99.90;;;6.21;70.44;102379.88;5071241;28;20493;-75
2021/01/10 02:35:52;;;;;;;13.00;9.37;;;6.00;99.90;;;6.15;70.60;102379.69;5072532;28;20127;-76
2021/01/10 02:38:34;;;;;;;12.03;8.83;;;6.00;99.90;;;6.09;71.00;102368.03;5072316;28;20040;-75
2021/01/10 02:41:15;;;;;;;24.73;11.93;;;5.90;99.90;;;6.06;70.95;102383.66;5072606;28;20068;-76
2021/01/10 02:43:55;;;;;;;18.20;11.18;;;5.90;99.90;;;5.94;70.95;102367.47;5072276;28;20040;-76
2021/01/10 02:46:28;;;;;;;14.47;10.43;;;5.80;99.90;;;5.92;70.90;102346.38;5072540;28;20068;-76
2021/01/10 02:48:56;;;;;;;17.45;11.10;;;5.80;99.90;;;6.02;70.99;102366.91;5072417;28;20044;-76
2021/01/10 02:51:23;;;;;;;19.30;11.97;;;5.80;99.90;;;6.02;71.24;102361.66;5072112;28;20048;-76
2021/01/10 02:53:51;;;;;;;20.43;12.37;;;5.80;99.90;;;6.06;70.93;102360.91;5070998;28;20052;-75
2021/01/10 02:56:20;;;;;;;17.93;11.43;;;5.80;99.90;;;6.02;71.58;102359.00;5072346;28;20044;-76
2021/01/10 02:58:52;;;;;;;17.80;10.47;;;5.80;99.90;;;5.94;71.04;102331.56;5072324;28;20102;-76
2021/01/10 03:01:21;;;;;;;13.50;10.73;;;5.90;99.90;;;6.18;70.63;102353.50;5072385;28;20048;-75
2021/01/10 03:03:50;;;;;;;15.57;10.27;;;6.00;99.90;;;6.17;70.93;102345.59;5071636;28;20057;-75
2021/01/10 03:06:17;;;;;;;16.30;10.00;;;6.00;99.90;;;6.17;70.99;102356.09;5071947;28;20109;-76
2021/01/10 03:08:45;;;;;;;15.30;10.70;;;6.00;99.90;;;5.88;71.11;102305.09;5072192;28;20445;-76
2021/01/10 03:11:13;;;;;;;13.97;9.27;;;6.00;99.90;;;6.19;71.05;102347.41;5072223;28;20044;-75
2021/01/10 03:13:41;;;;;;;15.03;10.87;;;6.00;99.90;;;6.21;70.89;102350.97;5072178;28;20454;-76
2021/01/10 03:16:09;;;;;;;14.30;10.40;;;6.00;99.90;;;6.23;70.99;102351.06;5071916;28;20048;-76
2021/01/10 03:18:36;;;;;;;14.83;10.27;;;6.00;99.90;;;6.22;71.08;102350.16;5071921;28;20043;-76
2021/01/10 03:21:04;;;;;;;12.03;9.10;;;6.00;99.90;;;6.27;71.02;102353.84;5072119;28;20148;-74
2021/01/10 03:23:32;;;;;;;12.83;9.43;;;6.00;99.90;;;6.28;70.69;102358.28;5072386;28;20060;-74
2021/01/10 03:26:00;;;;;;;14.37;9.17;;;6.10;99.90;;;6.24;70.59;102348.50;5070788;28;20056;-75
2021/01/10 03:28:29;;;;;;;15.77;9.97;;;6.10;99.90;;;6.09;70.45;102319.03;5071710;28;20036;-75
2021/01/10 03:30:57;;;;;;;16.90;10.70;;;6.10;99.90;;;6.24;70.40;102347.59;5071730;28;20041;-75
2021/01/10 03:33:25;;;;;;;16.27;10.23;;;6.10;99.90;;;6.16;70.55;102344.69;5071987;28;20071;-75
2021/01/10 03:35:54;;;;;;;16.87;11.73;;;6.00;99.90;;;5.88;71.14;102319.97;5087356;28;20516;-76
2021/01/10 03:38:21;;;;;;;16.10;10.90;;;5.90;99.90;;;5.97;71.49;102339.59;5071914;28;20379;-76
2021/01/10 03:40:49;;;;;;;18.00;10.67;;;5.80;99.90;;;5.88;71.57;102336.63;5070608;28;20139;-75
2021/01/10 03:43:16;;;;;;;14.00;10.47;;;5.70;99.90;;;5.86;71.77;102337.38;5071598;28;20472;-76
2021/01/10 03:45:44;;;;;;;17.73;10.80;;;5.70;99.90;;;5.87;71.49;102334.81;5071811;28;20098;-75
2021/01/10 03:48:15;;;;;;;12.43;9.87;;;5.70;99.90;;;5.88;71.59;102339.25;5071562;28;20048;-75
2021/01/10 03:50:42;;;;;;;16.67;10.87;;;5.60;99.90;;;5.90;71.44;102334.03;5070497;28;20071;-76
2021/01/10 03:53:12;;;;;;;12.73;9.57;;;5.60;99.90;;;5.94;71.23;102342.06;5071784;28;20117;-74
2021/01/10 03:55:40;;;;;;;12.87;9.03;;;5.70;99.90;;;5.97;71.08;102342.22;5071773;28;20044;-76
2021/01/10 03:58:10;;;;;;;10.17;8.03;;;5.70;99.90;;;6.02;71.14;102339.75;5071487;28;20131;-74
2021/01/10 04:00:38;;;;;;;10.43;9.13;;;5.80;99.90;;;6.02;70.62;102339.75;5070417;28;20052;-76
2021/01/10 04:03:09;;;;;;;11.53;8.77;;;5.80;99.90;;;6.01;70.77;102336.22;5071625;28;20052;-76
2021/01/10 04:05:37;;;;;;;;;;;5.80;99.90;;;6.15;70.35;102337.66;5071956;28;20037;-76
2021/01/10 04:08:10;;;;;;;12.13;8.70;;;5.90;99.90;;;6.18;69.94;102340.38;5071139;28;19924;-74
2021/01/10 04:10:38;;;;;;;10.83;8.23;;;6.00;99.90;;;6.19;69.88;102336.91;5071694;28;20068;-76
2021/01/10 04:13:06;;;;;;;11.37;7.97;;;6.00;99.90;;;6.13;69.57;102320.03;5071319;28;20473;-74
2021/01/10 04:15:33;;;;;;;9.97;6.90;;;6.00;99.90;;;6.39;69.33;102335.91;5073936;28;20044;-75
2021/01/10 04:18:02;;;;;;;11.47;7.67;;;6.10;99.90;;;6.48;68.93;102326.56;5075144;28;20059;-76
2021/01/10 04:20:29;;;;;;;10.93;7.33;;;6.20;99.90;;;6.44;68.67;102335.16;5073727;28;20568;-76
2021/01/10 04:22:58;;;;;;;11.30;7.73;;;6.30;99.90;;;6.44;68.73;102329.91;5074862;28;20124;-76
2021/01/10 04:25:25;;;;;;;11.90;7.87;;;6.30;99.90;;;6.36;69.00;102330.53;5075101;28;20032;-76
2021/01/10 04:27:53;;;;;;;11.53;8.17;;;6.30;99.90;;;6.20;68.82;102311.53;5090802;28;20053;-76
2021/01/10 04:30:21;;;;;;;9.87;7.30;;;6.20;99.90;;;6.11;69.11;102288.47;5074808;28;20048;-76
2021/01/10 04:32:50;;;;;;;10.33;7.70;;;6.20;99.90;;;6.48;68.52;102331.81;5074689;28;20572;-75
2021/01/10 04:35:20;;;;;;;11.33;8.00;;;6.30;99.90;;;6.38;68.50;102322.72;5074846;28;20122;-76
2021/01/10 04:37:47;;;;;;;10.30;8.07;;;6.30;99.90;;;6.10;68.35;102291.91;5074983;28;20045;-75
2021/01/10 04:40:17;;;;;;;8.20;7.43;;;6.20;99.90;;;6.35;68.58;102325.22;5074726;28;20094;-74
2021/01/10 04:42:46;;;;;;;10.10;7.27;;;6.20;99.90;;;6.38;68.45;102313.09;5090354;28;20052;-75
2021/01/10 04:45:13;;;;;;;11.67;7.53;;;6.20;99.90;;;6.36;68.35;102321.75;5074646;28;20446;-75
2021/01/10 04:47:42;;;;;;;9.83;7.20;;;6.20;99.90;;;6.31;68.49;102318.06;5073314;28;20067;-75
2021/01/10 04:50:13;;;;;;;7.80;7.10;;;6.20;99.90;;;6.34;68.35;102323.44;5074552;28;20433;-76
2021/01/10 04:52:42;;;;;;;8.87;6.90;;;6.20;99.90;;;6.33;68.46;102317.28;5073242;28;20513;-75
2021/01/10 04:55:11;;;;;;;11.43;7.40;;;6.20;99.90;;;6.28;68.13;102313.59;5074255;28;20121;-75
2021/01/10 04:57:42;;;;;;;9.40;6.67;;;6.10;99.90;;;6.32;68.30;102312.88;5074483;28;20778;-76
2021/01/10 05:00:11;;;;;;;16.95;7.80;;;6.10;99.90;;;6.28;68.07;102308.34;5074507;28;20048;-75
2021/01/10 05:02:46;;;;;;;10.03;7.70;;;6.10;99.90;;;6.22;68.01;102302.88;5074346;28;20040;-76
2021/01/10 05:05:17;;;;;;;9.00;7.93;;;6.10;99.90;;;6.03;68.15;102284.66;5074080;28;20042;-76
2021/01/10 05:07:45;;;;;;;11.07;8.03;;;6.00;99.90;;;6.05;68.52;102301.38;5089522;28;20064;-75
2021/01/10 05:10:13;;;;;;;8.37;6.60;;;5.90;99.90;;;6.08;68.36;102300.56;5074190;28;20044;-76
2021/01/10 05:12:43;;;;;;;11.33;7.80;;;5.90;99.90;;;6.06;68.52;102299.63;5074206;28;20044;-76
2021/01/10 05:15:13;;;;;;;7.83;6.93;;;5.90;99.90;;;6.08;68.50;102293.59;5073878;28;20082;-75
2021/01/10 05:17:40;;;;;;;10.38;6.32;;;5.90;99.90;;;6.07;68.44;102286.56;5074478;28;20099;-76
2021/01/10 05:20:08;;;;;;;9.13;7.13;;;5.90;99.90;;;6.11;68.59;102296.34;5074287;28;20098;-74
2021/01/10 05:22:40;;;;;;;10.03;8.03;;;6.00;99.90;;;5.96;68.32;102266.00;5073963;28;20048;-74
2021/01/10 05:25:14;;;;;;;8.77;6.97;;;6.00;99.90;;;6.13;68.48;102294.66;5072619;28;20067;-74
2021/01/10 05:27:46;;;;;;;9.07;7.13;;;6.00;99.90;;;6.14;68.30;102293.81;5073922;28;20052;-76
2021/01/10 05:30:18;;;;;;;10.87;6.40;;;6.00;99.90;;;5.99;68.46;102250.34;5073774;28;20052;-75
2021/01/10 05:32:59;;;;;;;9.30;7.60;;;6.00;99.90;;;6.08;68.35;102264.69;5106377;28;20452;-76
2021/01/10 05:35:29;;;;;;;11.37;7.67;;;6.00;99.90;;;6.20;68.31;102290.50;5073512;28;20494;-76
2021/01/10 05:37:58;;;;;;;8.32;7.38;;;6.00;99.90;;;6.20;68.25;102290.50;5073366;28;20052;-75
2021/01/10 05:40:31;;;;;;;9.27;7.67;;;6.10;99.90;;;6.16;67.91;102288.59;5072290;28;20041;-76
2021/01/10 05:43:10;;;;;;;13.53;7.50;;;6.00;99.90;;;6.12;68.14;102290.25;5073316;28;20048;-75
2021/01/10 05:45:38;;;;;;;10.97;7.03;;;5.90;99.90;;;6.11;68.19;102280.59;5073519;28;20051;-75
2021/01/10 05:48:12;;;;;;;7.00;5.97;;;5.90;99.90;;;6.02;68.08;102267.09;5073161;28;20033;-76
2021/01/10 05:50:44;;;;;;;10.93;6.83;;;5.90;99.90;;;6.13;68.07;102278.91;5073105;28;20044;-74
2021/01/10 05:53:17;;;;;;;8.67;6.83;;;6.00;99.90;;;6.12;67.99;102284.97;5073394;28;20049;-76
2021/01/10 05:56:09;;;;;;;11.77;6.90;;;5.90;99.90;;;6.16;67.87;102305.28;5073317;28;20056;-74
2021/01/10 05:58:39;;;;;;;10.53;6.37;;;6.00;99.90;;;6.09;67.77;102276.09;5071183;28;20110;-76
2021/01/10 06:01:12;;;;;;;11.70;6.27;;;5.90;99.90;;;5.99;67.71;102259.13;5073117;28;20098;-76
2021/01/10 06:03:40;;;;;;;9.90;6.60;;;6.00;99.90;;;6.04;67.50;102265.41;5072884;28;20486;-76
2021/01/10 06:06:09;;;;;;;9.87;6.60;;;6.00;99.90;;;6.06;67.58;102248.00;5071668;28;20044;-76
2021/01/10 06:08:38;;;;;;;10.07;6.30;;;6.10;99.90;;;6.13;67.45;102264.88;5072960;28;20080;-75
2021/01/10 06:11:24;;;;;;;7.13;6.37;;;6.10;99.90;;;6.27;67.14;102285.53;5073023;28;20091;-74
2021/01/10 06:14:00;;;;;;;9.63;6.57;;;6.10;99.90;;;6.07;66.90;102255.03;5072750;28;20505;-75
2021/01/10 06:16:31;;;;;;;13.47;6.30;;;6.10;99.90;;;6.27;66.95;102298.66;5073030;28;20037;-76
2021/01/10 06:19:02;;;;;;;8.93;6.00;;;6.00;99.90;;;6.27;67.17;102295.16;5072953;28;20075;-76
2021/01/10 06:21:32;;;;;;;12.65;6.18;;;6.10;99.90;;;6.10;66.77;102263.03;5072952;28;20095;-75
2021/01/10 06:24:01;;;;;;;6.70;5.80;;;6.10;99.90;;;6.33;66.83;102291.00;5072536;28;20118;-75
2021/01/10 06:26:30;;;;;;;6.90;5.73;;;6.20;99.90;;;6.33;66.75;102296.25;5072737;28;20639;-76
2021/01/10 06:29:01;;;;;;;7.93;5.87;;;6.10;99.90;;;6.29;66.83;102304.88;5072315;28;20079;-75
2021/01/10 06:31:33;;;;;;;6.60;5.57;;;6.10;99.90;;;6.28;66.65;102297.84;5072715;28;20131;-75
2021/01/10 06:34:05;;;;;;;5.90;5.40;;;6.10;99.90;;;6.29;66.70;102301.38;5072717;28;20059;-75
2021/01/10 06:36:36;;;;;;;8.03;5.17;;;6.10;99.90;;;6.30;66.68;102303.13;5071059;28;20049;-76
2021/01/10 06:39:08;;;;;;;8.37;5.47;;;6.10;99.90;;;6.19;66.53;102280.84;5072536;28;20048;-76
2021/01/10 06:42:08;;;;;;;9.73;6.30;;;6.10;99.90;;;6.28;66.71;102300.47;5072333;28;20044;-76
2021/01/10 06:44:52;;;;;;;10.93;5.73;;;6.10;99.90;;;6.26;66.90;102298.63;5071097;28;20056;-76
2021/01/10 06:47:23;;;;;;;10.13;5.93;;;6.10;99.90;;;5.12;66.81;102101.91;5071429;28;20644;-76
2021/01/10 06:49:53;;;;;;;9.07;6.27;;;6.10;99.90;;;6.30;67.29;102300.50;5072090;28;20414;-75
2021/01/10 06:52:24;;;;;;;8.83;6.10;;;6.10;99.90;;;6.31;66.91;102297.94;5072387;28;20036;-75
2021/01/10 06:54:52;;;;;;;11.60;6.03;;;6.10;99.90;;;6.31;67.12;102299.66;5072121;28;20044;-75
2021/01/10 06:57:20;;;;;;;11.70;6.70;;;6.10;99.90;;;6.35;67.01;102294.56;5072407;28;20193;-75
2021/01/10 07:00:08;;;;;;;10.20;6.03;;;6.10;99.90;;;6.35;67.31;102299.84;5072165;28;20467;-73
2021/01/10 07:03:08;;;;;;;8.30;6.23;;;6.10;99.90;;;6.13;67.44;102257.00;5072354;28;20047;-75
2021/01/10 07:06:01;;;;;;;9.35;6.72;;;6.10;99.90;;;6.28;67.41;102292.59;5071987;28;20406;-76
2021/01/10 07:08:40;;;;;;;13.80;6.53;;;6.10;99.90;;;6.23;67.60;102293.25;5072189;28;20093;-74
2021/01/10 07:11:36;;;;;;;6.97;5.73;;;6.00;99.90;;;6.23;67.58;102293.25;5071881;28;20504;-75
2021/01/10 07:14:28;;;;;;;8.27;6.20;;;6.00;99.90;;;6.21;67.58;102293.19;5072173;28;20037;-75
2021/01/10 07:17:18;;;;;;;11.00;6.07;;;6.00;99.90;;;6.25;67.59;102299.47;5071885;28;20490;-75
2021/01/10 07:19:49;;;;;;;9.53;6.57;;;6.10;99.90;;;6.27;67.41;102297.78;5072178;28;20127;-75
2021/01/10 07:22:28;;;;;;;11.07;6.03;;;6.10;99.90;;;6.21;67.31;102281.81;5072205;28;20047;-75
2021/01/10 07:24:57;;;;;;;9.37;6.80;;;6.10;99.90;;;6.30;67.33;102296.16;5071913;28;20499;-75
2021/01/10 07:27:30;;;;;;;9.93;6.43;;;6.10;99.90;;;6.32;67.25;102305.00;5071717;28;20110;-74
2021/01/10 07:29:58;;;;;;;16.27;6.50;;;6.10;99.90;;;6.16;67.24;102271.13;5071972;28;20033;-75
2021/01/10 07:32:35;;;;;;;8.67;6.40;;;6.10;99.90;;;6.28;67.04;102299.56;5071941;28;20040;-75
2021/01/10 07:35:06;;;;;;;8.83;6.20;;;6.10;99.90;;;6.27;67.22;102301.28;5070615;28;20494;-75
2021/01/10 07:37:34;;;;;;;9.27;6.37;;;6.10;99.90;;;6.29;67.15;102304.88;5072030;28;20049;-75
2021/01/10 07:40:07;;;;;;;9.47;5.60;;;6.10;99.90;;;6.09;67.33;102273.47;5087446;28;20057;-75
2021/01/10 07:42:36;;;;;;;10.23;6.60;;;6.10;99.90;;;6.32;67.17;102298.84;5071581;28;20044;-75
2021/01/10 07:45:16;;;;;;;12.77;6.77;;;6.10;99.90;;;6.33;67.34;102296.25;5071897;28;20066;-75
2021/01/10 07:47:47;;;;;;;11.48;6.68;;;6.20;99.90;;;6.31;67.21;102311.06;5071629;28;20233;-75
2021/01/10 07:50:22;;;;;;;8.55;6.05;;;6.10;99.90;;;6.36;67.26;102312.16;5073988;28;20076;-76
2021/01/10 07:52:53;;;;;;;12.57;6.17;;;6.20;99.90;;;6.34;67.10;102313.81;5075520;28;20041;-76
2021/01/10 07:55:29;;;;;;;6.47;5.72;;;6.10;99.90;;;6.33;66.98;102312.03;5075728;28;20048;-76
2021/01/10 07:58:16;;;;;;;10.47;6.50;;;6.10;99.90;;;6.38;67.08;102309.56;5075267;28;20521;-75
2021/01/10 08:00:54;;;;;;;9.03;6.53;;;6.10;99.90;;;5.84;67.22;102224.44;5075601;28;20044;-75
2021/01/10 08:03:25;;;;;;;12.00;6.97;;;6.20;99.90;;;6.36;67.03;102316.50;5075459;28;20049;-74
2021/01/10 08:06:01;;;;;;;8.32;5.97;;;6.20;99.90;;;5.65;66.94;102189.56;5075495;28;20440;-76
2021/01/10 08:08:44;;;;;;;8.50;6.60;;;6.10;99.90;;;6.31;67.15;102307.53;5075268;28;20402;-76
2021/01/10 08:11:13;;;;;;;11.93;6.80;;;6.20;99.90;;;6.34;67.04;102323.44;5075108;28;20041;-75
2021/01/10 08:13:44;;;;;;;9.53;7.07;;;6.20;99.90;;;6.37;67.34;102302.50;5075151;28;20049;-75
2021/01/10 08:16:12;;;;;;;;;;;6.30;99.90;;;6.62;67.05;102317.44;5075754;28;20048;-76
2021/01/10 08:18:46;;;;;;;8.10;5.40;;;6.40;99.90;;;6.63;66.52;102312.22;5075304;28;19924;-75
2021/01/10 08:21:16;;;;;;;10.93;6.30;;;6.50;99.90;;;6.58;66.43;102318.16;5075065;28;20052;-75
2021/01/10 08:23:48;;;;;;;10.10;6.28;;;6.50;99.90;;;6.57;66.25;102318.97;5075095;28;20037;-75
2021/01/10 08:26:18;;;;;;;12.60;6.50;;;6.40;99.90;;;6.56;66.27;102314.59;5074897;28;20064;-76
2021/01/10 08:28:47;;;;;;;13.90;6.00;;;6.40;99.90;;;6.60;66.61;102311.22;5073590;28;20048;-75
2021/01/10 08:31:16;;;;;;;7.47;6.00;;;6.40;99.90;;;6.62;66.52;102315.66;5074592;28;20060;-75
2021/01/10 08:33:46;;;;;;;10.68;6.05;;;6.40;99.90;;;6.66;66.35;102319.31;5090394;28;20394;-75
2021/01/10 08:36:19;;;;;;;12.53;6.20;;;6.50;99.90;;;6.64;66.43;102319.25;5074372;28;20482;-75
2021/01/10 08:38:51;;;;;;;9.60;6.37;;;6.40;99.90;;;6.63;66.84;102321.81;5074629;28;20064;-71
2021/01/10 08:41:28;;;;;;;10.23;6.00;;;6.40;99.90;;;6.67;66.57;102326.34;5074710;28;20055;-75
2021/01/10 08:43:59;;;;;;;10.47;6.30;;;6.40;99.90;;;6.69;66.00;102324.66;5074463;28;20044;-74
2021/01/10 08:46:29;;;;;;;10.70;6.57;;;6.50;99.90;;;6.90;65.75;102331.56;5074661;28;20037;-73
2021/01/10 08:48:58;;;;;;;10.30;6.53;;;6.60;99.90;;;7.31;65.61;102327.66;5074510;28;20044;-74
2021/01/10 08:51:36;;;;;;;8.03;6.60;;;7.00;99.90;;;7.73;65.27;102320.19;5073212;28;20044;-74
2021/01/10 08:54:09;;;;;;;9.10;5.73;;;7.50;99.90;;;8.24;63.75;102334.91;5074192;28;20371;-75
2021/01/10 08:56:37;;;;;;;8.98;5.80;;;8.00;99.90;;;8.49;62.65;102341.78;5074669;28;20115;-74
2021/01/10 08:59:06;;;;;;;7.18;5.93;;;8.30;99.90;;;8.51;61.97;102346.28;5073678;28;20058;-74
2021/01/10 09:01:34;;;;;;;13.55;6.10;;;8.50;99.90;;;8.47;61.30;102311.84;5073534;28;20041;-76
2021/01/10 09:04:06;;;;;;;11.02;5.82;;;8.50;99.90;;;9.00;62.21;102338.78;5073856;28;20417;-76
2021/01/10 09:06:45;;;;;;;7.95;5.57;;;8.90;99.90;;;9.36;61.12;102330.91;5074061;28;20044;-79
2021/01/10 09:09:22;;;;;;;7.32;5.70;;;9.30;99.90;;;9.65;59.42;102347.41;5074421;28;20056;-79
2021/01/10 09:12:02;;;;;;;8.70;5.57;;;9.60;99.90;;;9.54;58.67;102328.66;5074066;28;20049;-76
2021/01/10 09:14:38;;;;;;;9.93;6.00;;;9.50;99.90;;;9.61;58.88;102351.75;5089597;28;20056;-71
2021/01/10 09:17:07;;;;;;;7.72;5.75;;;9.50;99.90;;;9.53;58.57;102358.59;5074033;28;20121;-76
2021/01/10 09:19:37;;;;;;;8.27;5.35;;;9.40;99.90;;;9.03;58.91;102295.75;5073698;28;20525;-77
2021/01/10 09:22:05;;;;;;;9.07;5.68;;;9.20;99.90;;;9.16;59.00;102345.34;5072545;28;20045;-77
2021/01/10 09:24:34;;;;;;;10.48;6.28;;;9.10;99.90;;;9.20;59.01;102352.47;5073804;28;20063;-77
2021/01/10 09:27:13;;;;;;;9.63;6.40;;;9.00;99.90;;;9.15;59.79;102333.00;5073788;28;20059;-76
2021/01/10 09:29:41;;;;;;;10.25;6.47;;;8.90;99.90;;;9.77;60.02;102361.81;5073732;28;20113;-76
2021/01/10 09:32:10;;;;;;;12.73;6.57;;;9.40;99.90;;;10.33;58.85;102359.53;5073500;28;20048;-79
2021/01/10 09:34:38;;;;;;;7.90;5.97;;;10.10;99.90;;;10.98;57.59;102359.00;5073535;28;20044;-74
2021/01/10 09:37:10;;;;;;;9.50;6.32;;;10.80;99.90;;;11.58;56.49;102369.72;5073217;28;20119;-76
2021/01/10 09:39:43;;;;;;;9.73;5.65;;;11.40;99.90;;;12.07;55.25;102363.44;5073526;28;20045;-78
2021/01/10 09:42:12;;;;;;;9.52;6.18;;;12.00;99.90;;;12.50;54.63;102369.28;5073269;28;20037;-73
2021/01/10 09:44:40;;;;;;;7.82;5.90;;;12.50;99.90;;;12.96;53.57;102362.72;5073380;28;20048;-78
2021/01/10 09:47:11;;;;;;;9.00;5.68;;;12.90;99.90;;;12.97;52.08;102287.44;5073836;28;20040;-75
2021/01/10 09:49:45;;;;;;;7.43;6.18;;;13.40;99.90;;;13.68;51.92;102358.91;5073257;28;20058;-78
2021/01/10 09:52:13;;;;;;;8.83;5.60;;;13.70;99.90;;;14.00;51.23;102362.66;5073156;28;20182;-82
2021/01/10 09:54:42;;;;;;;7.60;6.20;;;14.00;99.90;;;14.23;50.29;102361.00;5073426;28;20290;-80
2021/01/10 09:57:17;;;;;;;8.07;6.35;;;14.20;99.90;;;14.51;50.28;102354.06;5071930;28;20048;-73
2021/01/10 10:00:02;;;;;;;7.78;5.60;;;14.40;99.90;;;14.53;49.34;102345.19;5105881;28;20056;-75
2021/01/10 10:02:39;;;;;;;7.07;6.35;;;14.50;99.90;;;14.91;48.53;102354.16;5073017;28;20131;-75
2021/01/10 10:05:14;;;;;;;6.93;6.22;;;14.80;99.90;;;15.06;47.49;102334.66;5072910;28;20044;-75
2021/01/10 10:07:44;;;;;;;8.32;6.80;;;15.00;99.90;;;15.27;46.59;102353.31;5087793;28;20070;-75
2021/01/10 10:10:26;;;;;;;7.38;6.65;;;15.10;99.90;;;15.12;46.29;102307.97;5072122;28;20055;-74
2021/01/10 10:12:58;;;;;;;8.82;6.57;;;15.10;99.90;;;15.36;45.70;102351.53;5071611;28;20058;-75
2021/01/10 10:15:38;;;;;;;8.73;6.68;;;15.20;99.90;;;14.66;45.67;102242.22;5072168;28;20416;-75
2021/01/10 10:18:07;;;;;;;8.73;6.38;;;15.10;99.90;;;15.31;45.82;102347.94;5071188;28;20125;-75
2021/01/10 10:20:37;;;;;;;7.63;6.68;;;15.10;99.90;;;15.23;45.66;102354.19;5072618;28;20041;-74
2021/01/10 10:23:09;;;;;;;6.70;6.00;;;15.00;99.90;;;15.11;46.10;102351.50;5088274;28;20048;-75
2021/01/10 10:25:37;;;;;;;7.03;6.32;;;14.90;99.90;;;14.48;46.76;102237.75;5072825;28;20044;-75
2021/01/10 10:28:05;;;;;;;8.65;6.90;;;14.80;99.90;;;15.19;46.63;102355.06;5072483;28;20048;-75
2021/01/10 10:30:34;;;;;;;9.02;6.38;;;14.90;99.90;;;14.57;45.06;102314.13;5071170;28;20843;-74
2021/01/10 10:33:03;;;;;;;7.72;5.88;;;14.70;99.90;;;14.15;45.52;102357.44;5072796;28;20072;-75
2021/01/10 10:35:31;;;;;;;7.05;6.15;;;14.10;99.90;;;13.79;46.65;102360.75;5071136;28;20122;-75
2021/01/10 10:38:00;;;;;;;8.65;7.43;;;13.70;99.90;;;13.09;48.09;102354.00;5071952;28;20113;-74